Time;durP1;ratioP1;P1;durP2;ratioP2;P2;SDS_P1;SDS_P2;PMS_P1;PMS_P2;Temp;Humidity;BMP_temperature;BMP_pressure;BME280_temperature;BME280_humidity;BME280_pressure;Samples;Min_cycle;Max_cycle;Signal;HPM_P1;HPM_P2
2022/03/28 00:01:11;;;;;;;9.00;8.10;;;8.80;99.90;;;;;;5067759;28;20176;-72
2022/03/28 00:03:37;;;;;;;7.95;7.25;;;8.80;99.90;;;;;;5066509;28;20176;-72
2022/03/28 00:06:04;;;;;;;9.57;7.93;;;8.80;99.90;;;;;;5061284;28;20234;-72
2022/03/28 00:08:30;;;;;;;8.68;7.88;;;8.70;99.90;;;;;;5064071;28;20184;-72
2022/03/28 00:10:56;;;;;;;8.63;7.72;;;8.60;99.90;;;;;;5066825;28;20188;-72
2022/03/28 00:13:22;;;;;;;9.30;8.40;;;8.50;99.90;;;;;;5059444;28;20231;-72
2022/03/28 00:15:47;;;;;;;9.20;8.30;;;8.40;99.90;;;;;;5064417;28;20223;-72
2022/03/28 00:18:14;;;;;;;9.10;8.15;;;8.30;99.90;;;;;;5066536;28;20186;-72
2022/03/28 00:20:39;;;;;;;9.73;7.85;;;8.30;99.90;;;;;;5056545;28;20172;-71
2022/03/28 00:23:06;;;;;;;8.90;7.90;;;8.20;99.90;;;;;;5054561;28;20176;-72
2022/03/28 00:25:32;;;;;;;9.48;8.57;;;8.20;99.90;;;;;;5065273;28;20268;-71
2022/03/28 00:27:57;;;;;;;9.20;8.30;;;8.20;99.90;;;;;;5062972;28;20176;-71
2022/03/28 00:30:24;;;;;;;9.02;8.13;;;8.10;99.90;;;;;;5072502;28;20183;-71
2022/03/28 00:32:49;;;;;;;9.13;8.20;;;8.10;99.90;;;;;;5063580;28;20233;-70
2022/03/28 00:35:16;;;;;;;9.38;8.20;;;8.00;99.90;;;;;;5064261;28;20717;-72
2022/03/28 00:37:42;;;;;;;9.25;8.35;;;8.00;99.90;;;;;;5064323;28;20175;-72
2022/03/28 00:40:11;;;;;;;9.32;8.43;;;7.90;99.90;;;;;;5066174;28;20183;-72
2022/03/28 00:42:37;;;;;;;8.95;7.97;;;7.90;99.90;;;;;;5064948;28;20274;-72
2022/03/28 00:45:07;;;;;;;9.23;7.93;;;7.80;99.90;;;;;;5059706;28;20277;-72
2022/03/28 00:47:33;;;;;;;10.43;8.38;;;7.80;99.90;;;;;;5065296;28;20183;-72
2022/03/28 00:49:58;;;;;;;9.70;8.65;;;7.70;99.90;;;;;;5065785;28;20213;-72
2022/03/28 00:52:24;;;;;;;9.23;7.90;;;7.70;99.90;;;;;;5063584;28;20179;-72
2022/03/28 00:54:50;;;;;;;9.05;8.15;;;7.60;99.90;;;;;;5062897;28;20233;-72
2022/03/28 00:57:20;;;;;;;8.70;7.80;;;7.60;99.90;;;;;;5064012;28;20176;-72
2022/03/28 00:59:45;;;;;;;9.57;8.57;;;7.50;99.90;;;;;;5066742;28;20175;-71
2022/03/28 01:02:11;;;;;;;9.50;8.60;;;7.50;99.90;;;;;;5063588;28;20672;-70
2022/03/28 01:04:39;;;;;;;8.80;7.90;;;7.50;99.90;;;;;;5061190;28;20238;-71
2022/03/28 01:07:06;;;;;;;9.70;8.75;;;7.50;99.90;;;;;;5054822;28;20180;-70
2022/03/28 01:09:32;;;;;;;10.40;9.40;;;7.50;99.90;;;;;;5063223;28;20222;-72
2022/03/28 01:11:59;;;;;;;12.57;10.77;;;7.50;99.90;;;;;;5061928;28;20677;-71
2022/03/28 01:14:26;;;;;;;10.98;9.88;;;7.40;99.90;;;;;;5062593;28;20242;-71
2022/03/28 01:19:36;;;;;;;12.02;10.70;;;7.40;99.90;;;;;;5062777;28;20230;-71
2022/03/28 01:22:01;;;;;;;11.02;10.00;;;7.40;99.90;;;;;;5063859;28;20192;-71
2022/03/28 01:24:28;;;;;;;10.17;8.90;;;7.30;99.90;;;;;;5067275;28;20183;-71
2022/03/28 01:26:55;;;;;;;11.47;10.27;;;7.30;99.90;;;;;;5064830;28;20199;-70
2022/03/28 01:29:21;;;;;;;11.20;10.20;;;7.30;99.90;;;;;;5071056;28;20301;-72
2022/03/28 01:31:46;;;;;;;12.10;10.77;;;7.30;99.90;;;;;;5060419;28;20254;-71
2022/03/28 01:34:17;;;;;;;10.93;9.83;;;7.30;99.90;;;;;;5067179;28;20211;-71
2022/03/28 01:36:45;;;;;;;11.53;10.33;;;7.30;99.90;;;;;;5069961;28;20174;-71
2022/03/28 01:39:12;;;;;;;10.23;9.23;;;7.30;99.90;;;;;;5071917;28;20179;-70
2022/03/28 01:41:37;;;;;;;13.15;10.23;;;7.30;99.90;;;;;;5068376;28;20226;-71
2022/03/28 01:44:05;;;;;;;12.35;9.63;;;7.30;99.90;;;;;;5072534;28;20226;-70
2022/03/28 01:46:30;;;;;;;11.88;9.90;;;7.30;99.90;;;;;;5071088;28;20195;-70
2022/03/28 01:48:56;;;;;;;10.30;9.40;;;7.40;99.90;;;;;;5068991;28;20681;-71
2022/03/28 01:51:22;;;;;;;11.27;10.20;;;7.30;99.90;;;;;;5064475;28;20183;-71
2022/03/28 01:53:47;;;;;;;11.53;9.90;;;7.30;99.90;;;;;;5066890;28;20199;-70
2022/03/28 01:56:13;;;;;;;11.00;9.83;;;7.20;99.90;;;;;;5064171;28;20205;-70
2022/03/28 01:58:39;;;;;;;10.53;9.53;;;7.20;99.90;;;;;;5065611;28;20728;-70
2022/03/28 02:01:05;;;;;;;10.93;9.90;;;7.20;99.90;;;;;;5073867;28;20175;-70
2022/03/28 02:03:30;;;;;;;10.57;9.57;;;7.20;99.90;;;;;;5063768;28;20215;-71
2022/03/28 02:05:56;;;;;;;10.43;9.43;;;7.10;99.90;;;;;;5061129;28;20211;-70
2022/03/28 02:08:21;;;;;;;11.20;10.10;;;7.10;99.90;;;;;;5063608;28;20650;-72
2022/03/28 02:10:47;;;;;;;11.33;10.13;;;7.00;99.90;;;;;;5059697;28;20179;-71
2022/03/28 02:13:13;;;;;;;10.77;9.67;;;6.90;99.90;;;;;;5067724;28;20183;-71
2022/03/28 02:15:38;;;;;;;11.40;10.17;;;6.80;99.90;;;;;;5058816;28;20202;-71
2022/03/28 02:18:05;;;;;;;10.03;9.07;;;6.70;99.90;;;;;;5064207;28;20176;-71
2022/03/28 02:20:30;;;;;;;10.13;9.13;;;6.70;99.90;;;;;;5062896;28;20172;-71
2022/03/28 02:22:56;;;;;;;10.30;9.30;;;6.70;99.90;;;;;;5065617;28;20279;-72
2022/03/28 02:25:21;;;;;;;10.87;9.20;;;6.60;99.90;;;;;;5061006;28;20618;-71
2022/03/28 02:27:47;;;;;;;10.07;9.07;;;6.60;99.90;;;;;;5064426;28;20186;-71
2022/03/28 02:30:14;;;;;;;10.80;9.27;;;6.60;99.90;;;;;;5062481;28;20738;-71
2022/03/28 02:32:40;;;;;;;10.43;8.50;;;6.70;99.90;;;;;;5068616;28;20183;-72
2022/03/28 02:35:07;;;;;;;10.20;9.10;;;6.70;99.90;;;;;;5064105;28;20225;-71
2022/03/28 02:37:33;;;;;;;10.17;9.27;;;6.70;99.90;;;;;;5066996;28;20186;-71
2022/03/28 02:39:58;;;;;;;9.37;8.47;;;6.60;99.90;;;;;;5064079;28;20175;-71
2022/03/28 02:42:24;;;;;;;9.83;8.83;;;6.60;99.90;;;;;;5073329;28;20186;-72
2022/03/28 02:44:51;;;;;;;9.67;8.70;;;6.50;99.90;;;;;;5063483;28;20196;-70
2022/03/28 02:47:21;;;;;;;10.67;9.67;;;6.50;99.90;;;;;;5074520;28;20293;-70
2022/03/28 02:49:47;;;;;;;11.53;10.33;;;6.50;99.90;;;;;;5070215;28;20211;-70
2022/03/28 02:52:12;;;;;;;10.27;9.20;;;6.40;99.90;;;;;;5063291;28;20184;-70
2022/03/28 02:54:38;;;;;;;10.57;9.53;;;6.30;99.90;;;;;;5069160;28;20225;-71
2022/03/28 02:57:04;;;;;;;12.00;9.70;;;6.20;99.90;;;;;;5062401;28;20237;-71
2022/03/28 02:59:30;;;;;;;11.10;10.00;;;6.30;99.90;;;;;;5066507;28;20207;-71
2022/03/28 03:01:55;;;;;;;13.90;10.50;;;6.20;99.90;;;;;;5073709;28;20248;-70
2022/03/28 03:04:21;;;;;;;10.23;9.10;;;6.20;99.90;;;;;;5070820;28;20210;-71
2022/03/28 03:06:46;;;;;;;9.80;8.80;;;6.20;99.90;;;;;;5067162;28;20183;-71
2022/03/28 03:09:12;;;;;;;10.90;9.23;;;6.10;99.90;;;;;;5064996;28;20188;-71
2022/03/28 03:11:40;;;;;;;10.50;9.50;;;6.10;99.90;;;;;;5063660;28;20183;-71
2022/03/28 03:14:06;;;;;;;10.37;9.27;;;6.10;99.90;;;;;;5061597;28;20195;-71
2022/03/28 03:16:31;;;;;;;11.03;9.13;;;6.10;99.90;;;;;;5067260;28;20256;-72
2022/03/28 03:18:57;;;;;;;10.53;9.53;;;6.10;99.90;;;;;;5071873;28;20190;-70
2022/03/28 03:21:23;;;;;;;11.03;9.53;;;6.00;99.90;;;;;;5072461;28;20179;-72
2022/03/28 03:23:48;;;;;;;12.07;10.77;;;5.90;99.90;;;;;;5066335;28;20179;-71
2022/03/28 03:26:14;;;;;;;10.03;9.03;;;5.90;99.90;;;;;;5063558;28;20609;-71
2022/03/28 03:28:39;;;;;;;10.00;9.10;;;5.90;99.90;;;;;;5065076;28;20463;-71
2022/03/28 03:31:06;;;;;;;10.40;9.40;;;5.80;99.90;;;;;;5066737;28;20229;-71
2022/03/28 03:33:32;;;;;;;10.47;9.17;;;5.80;99.90;;;;;;5064806;28;20293;-71
2022/03/28 03:36:00;;;;;;;11.07;9.03;;;5.90;99.90;;;;;;5062244;28;20226;-70
2022/03/28 03:38:26;;;;;;;10.03;8.90;;;5.90;99.90;;;;;;5061406;28;20631;-71
2022/03/28 03:40:52;;;;;;;11.07;8.97;;;6.00;99.90;;;;;;5060286;28;20178;-71
2022/03/28 03:43:18;;;;;;;11.93;10.73;;;6.00;99.90;;;;;;5071573;28;20559;-71
2022/03/28 03:45:44;;;;;;;12.13;10.17;;;5.90;99.90;;;;;;5064631;28;20200;-71
2022/03/28 03:48:09;;;;;;;12.07;10.87;;;5.90;99.90;;;;;;5062563;28;20194;-71
2022/03/28 03:50:35;;;;;;;11.93;10.43;;;5.90;99.90;;;;;;5063224;28;20198;-71
2022/03/28 03:53:01;;;;;;;12.33;10.70;;;5.80;99.90;;;;;;5081393;28;20720;-71
2022/03/28 03:55:26;;;;;;;10.30;9.30;;;5.70;99.90;;;;;;5066984;28;20218;-68
2022/03/28 03:57:52;;;;;;;10.43;9.47;;;5.70;99.90;;;;;;5058197;28;20552;-68
2022/03/28 04:00:17;;;;;;;11.33;10.23;;;5.70;99.90;;;;;;5055336;28;20176;-69
2022/03/28 04:02:43;;;;;;;12.80;11.23;;;5.60;99.90;;;;;;5067395;28;20180;-69
2022/03/28 04:05:09;;;;;;;11.97;10.30;;;5.60;99.90;;;;;;5064449;28;20725;-69
2022/03/28 04:07:35;;;;;;;10.83;9.73;;;5.60;99.90;;;;;;5067320;28;20453;-69
2022/03/28 04:10:01;;;;;;;13.13;10.00;;;5.60;99.90;;;;;;5068096;28;20183;-69
2022/03/28 04:12:27;;;;;;;11.30;9.70;;;5.70;99.90;;;;;;5063079;28;20208;-69
2022/03/28 04:14:57;;;;;;;11.50;9.50;;;5.70;99.90;;;;;;5061541;28;20210;-68
2022/03/28 04:17:23;;;;;;;11.63;10.13;;;5.70;99.90;;;;;;5061556;28;20814;-71
2022/03/28 04:19:49;;;;;;;10.33;8.93;;;5.70;99.90;;;;;;5054153;28;20301;-70
2022/03/28 04:22:14;;;;;;;14.10;10.30;;;5.70;99.90;;;;;;5065237;28;20283;-70
2022/03/28 04:24:40;;;;;;;10.80;9.70;;;5.70;99.90;;;;;;5052824;28;20203;-69
2022/03/28 04:27:05;;;;;;;11.83;9.80;;;5.70;99.90;;;;;;5067317;28;20195;-68
2022/03/28 04:29:31;;;;;;;11.20;9.17;;;5.70;99.90;;;;;;5066374;28;20175;-68
2022/03/28 04:31:57;;;;;;;11.03;9.83;;;5.60;99.90;;;;;;5069744;28;20283;-68
2022/03/28 04:34:22;;;;;;;11.80;10.10;;;5.50;99.90;;;;;;5062232;28;20605;-68
2022/03/28 04:36:48;;;;;;;11.70;10.50;;;5.50;99.90;;;;;;5066160;28;20643;-68
2022/03/28 04:39:14;;;;;;;11.23;10.07;;;5.40;99.90;;;;;;5067442;28;20215;-68
2022/03/28 04:41:39;;;;;;;11.97;9.93;;;5.40;99.90;;;;;;5069105;28;20179;-68
2022/03/28 04:44:05;;;;;;;11.10;10.10;;;5.40;99.90;;;;;;5064000;28;20631;-68
2022/03/28 04:46:31;;;;;;;10.50;9.50;;;5.50;99.90;;;;;;5067056;28;20635;-68
2022/03/28 04:48:57;;;;;;;12.00;10.80;;;5.40;99.90;;;;;;5062206;28;20180;-68
2022/03/28 04:51:23;;;;;;;11.77;10.57;;;5.40;99.90;;;;;;5062581;28;20187;-69
2022/03/28 04:53:48;;;;;;;11.83;9.90;;;5.30;99.90;;;;;;5068281;28;20556;-69
2022/03/28 04:56:14;;;;;;;11.47;10.33;;;5.30;99.90;;;;;;5067677;28;20203;-69
2022/03/28 04:58:40;;;;;;;11.47;10.37;;;5.30;99.90;;;;;;5060705;28;20207;-69
2022/03/28 05:01:05;;;;;;;11.20;10.10;;;5.30;99.90;;;;;;5055416;28;20188;-69
2022/03/28 05:03:31;;;;;;;11.93;10.13;;;5.30;99.90;;;;;;5060585;28;20551;-69
2022/03/28 05:05:56;;;;;;;12.20;10.87;;;5.30;99.90;;;;;;5065877;28;20226;-68
2022/03/28 05:08:22;;;;;;;11.43;10.33;;;5.30;99.90;;;;;;5069421;28;20216;-68
2022/03/28 05:10:48;;;;;;;11.13;10.03;;;5.30;99.90;;;;;;5079703;28;20657;-68
2022/03/28 05:13:13;;;;;;;12.80;11.50;;;5.30;99.90;;;;;;5071693;28;20185;-69
2022/03/28 05:15:39;;;;;;;12.17;10.87;;;5.30;99.90;;;;;;5060197;28;20741;-69
2022/03/28 05:18:05;;;;;;;10.67;9.57;;;5.30;99.90;;;;;;5053333;28;20298;-70
2022/03/28 05:20:30;;;;;;;10.77;9.70;;;5.30;99.90;;;;;;5059270;28;20183;-69
2022/03/28 05:22:56;;;;;;;14.90;11.20;;;5.30;99.90;;;;;;5064583;28;20193;-69
2022/03/28 05:25:21;;;;;;;11.73;10.60;;;5.30;99.90;;;;;;5063226;28;20215;-70
2022/03/28 05:27:47;;;;;;;13.57;11.07;;;5.40;99.90;;;;;;5059683;28;20190;-71
2022/03/28 05:30:14;;;;;;;13.67;10.97;;;5.40;99.90;;;;;;5057910;28;20643;-71
2022/03/28 05:32:42;;;;;;;11.23;9.67;;;5.40;99.90;;;;;;5059429;28;20269;-72
2022/03/28 05:35:09;;;;;;;13.73;10.93;;;5.40;99.90;;;;;;5058389;28;20207;-73
2022/03/28 05:37:35;;;;;;;11.40;10.23;;;5.50;99.90;;;;;;5058603;28;20182;-71
2022/03/28 05:40:02;;;;;;;12.30;10.97;;;5.50;99.90;;;;;;5055808;28;20195;-71
2022/03/28 05:42:28;;;;;;;12.70;10.83;;;5.60;99.90;;;;;;5057315;28;20183;-70
2022/03/28 05:44:54;;;;;;;12.20;10.03;;;5.70;99.90;;;;;;5052726;28;20207;-72
2022/03/28 05:47:20;;;;;;;12.60;10.53;;;5.70;99.90;;;;;;5053641;28;20203;-71
2022/03/28 05:49:45;;;;;;;11.53;10.33;;;5.80;99.90;;;;;;5060010;28;20669;-71
2022/03/28 05:52:11;;;;;;;14.13;11.20;;;5.80;99.90;;;;;;5062746;28;20205;-72
2022/03/28 05:54:36;;;;;;;15.83;11.13;;;5.80;99.90;;;;;;5059711;28;20298;-69
2022/03/28 05:57:02;;;;;;;12.93;11.43;;;6.00;99.90;;;;;;5060082;28;20186;-70
2022/03/28 05:59:28;;;;;;;13.20;11.27;;;6.10;99.90;;;;;;5062314;28;20196;-69
2022/03/28 06:01:54;;;;;;;13.90;10.73;;;6.20;99.90;;;;;;5061130;28;20193;-69
2022/03/28 06:04:20;;;;;;;15.17;12.53;;;6.30;99.90;;;;;;5069734;28;20187;-70
2022/03/28 06:06:46;;;;;;;12.70;11.40;;;6.50;99.90;;;;;;5056578;28;20280;-70
2022/03/28 06:09:12;;;;;;;14.07;11.57;;;6.60;99.90;;;;;;5067402;28;20176;-69
2022/03/28 06:11:37;;;;;;;12.27;11.07;;;6.80;99.90;;;;;;5065421;28;20278;-71
2022/03/28 06:14:04;;;;;;;13.73;10.90;;;6.90;99.90;;;;;;5070430;28;20213;-70
2022/03/28 06:16:30;;;;;;;12.23;10.93;;;6.90;99.90;;;;;;5058169;28;20679;-70
2022/03/28 06:18:57;;;;;;;12.77;11.47;;;7.00;99.90;;;;;;5066426;28;20201;-70
2022/03/28 06:21:22;;;;;;;13.00;11.80;;;7.10;99.90;;;;;;5072187;28;20586;-71
2022/03/28 06:23:48;;;;;;;13.73;11.70;;;7.20;99.90;;;;;;5075487;28;20185;-72
2022/03/28 06:26:14;;;;;;;13.83;11.80;;;7.20;99.90;;;;;;5066325;28;20746;-72
2022/03/28 06:28:40;;;;;;;16.40;12.68;;;7.30;99.90;;;;;;5060448;28;20275;-72
2022/03/28 06:31:07;;;;;;;13.93;11.83;;;7.30;99.90;;;;;;5063459;28;20191;-71
2022/03/28 06:33:33;;;;;;;13.63;12.30;;;7.40;99.90;;;;;;5067343;28;20206;-72
2022/03/28 06:35:58;;;;;;;14.10;12.33;;;7.50;99.90;;;;;;5058720;28;20212;-72
2022/03/28 06:38:24;;;;;;;16.27;14.40;;;7.60;99.90;;;;;;5065027;28;20553;-71
2022/03/28 06:40:50;;;;;;;15.20;12.90;;;7.60;99.90;;;;;;5060340;28;20180;-71
2022/03/28 06:43:15;;;;;;;14.43;12.98;;;7.60;99.90;;;;;;5067444;28;20199;-75
2022/03/28 06:45:41;;;;;;;13.30;11.70;;;7.70;99.90;;;;;;5063382;28;20207;-72
2022/03/28 06:48:07;;;;;;;13.90;12.43;;;7.90;99.90;;;;;;5069154;28;20183;-72
2022/03/28 06:50:34;;;;;;;13.95;12.60;;;8.00;99.90;;;;;;5065247;28;20180;-71
2022/03/28 06:53:00;;;;;;;16.70;14.23;;;8.10;99.90;;;;;;5080637;28;20327;-72
2022/03/28 06:55:26;;;;;;;14.75;13.20;;;8.30;99.90;;;;;;5067404;28;20713;-71
2022/03/28 06:57:52;;;;;;;12.35;11.15;;;8.30;99.90;;;;;;5064073;28;20233;-70
2022/03/28 07:00:18;;;;;;;13.80;12.48;;;8.40;99.90;;;;;;5060443;28;20230;-73
2022/03/28 07:02:44;;;;;;;14.23;12.82;;;8.60;99.90;;;;;;5069446;28;20183;-73
2022/03/28 07:05:10;;;;;;;14.05;12.65;;;8.60;99.90;;;;;;5065571;28;20612;-73
2022/03/28 07:07:46;;;;;;;14.57;13.02;;;8.60;99.90;;;;;;5067122;28;20550;-72
2022/03/28 07:10:14;;;;;;;15.73;13.55;;;8.60;99.90;;;;;;5062946;28;20179;-74
2022/03/28 07:12:40;;;;;;;14.60;13.10;;;8.80;99.90;;;;;;5070264;28;20183;-74
2022/03/28 07:15:08;;;;;;;14.18;12.77;;;8.90;99.90;;;;;;5064355;28;20211;-75
2022/03/28 07:17:58;;;;;;;17.98;14.23;;;9.10;99.90;;;;;;5063280;28;20268;-75
2022/03/28 07:20:26;;;;;;;15.13;13.52;;;9.10;99.90;;;;;;5057325;28;20222;-75
2022/03/28 07:22:53;;;;;;;15.88;14.30;;;9.20;99.90;;;;;;5079536;28;20207;-75
2022/03/28 07:25:20;;;;;;;16.50;12.45;;;9.30;99.90;;;;;;5057382;28;20254;-74
2022/03/28 07:27:46;;;;;;;15.30;13.15;;;9.50;99.90;;;;;;5058708;28;20183;-77
2022/03/28 07:30:13;;;;;;;17.58;14.35;;;9.60;99.90;;;;;;5068428;28;20705;-76
2022/03/28 07:32:39;;;;;;;14.65;13.13;;;9.60;99.90;;;;;;5061468;28;20563;-75
2022/03/28 07:35:05;;;;;;;14.60;13.20;;;9.70;99.90;;;;;;5059241;28;20291;-74
2022/03/28 07:37:32;;;;;;;14.60;13.20;;;9.90;99.90;;;;;;5063126;28;20180;-73
2022/03/28 07:39:58;;;;;;;16.20;12.77;;;9.90;99.90;;;;;;5064817;28;20229;-74
2022/03/28 07:42:24;;;;;;;15.85;14.15;;;10.00;99.90;;;;;;5067953;28;20249;-74
2022/03/28 07:44:55;;;;;;;15.25;13.77;;;10.10;99.90;;;;;;5067041;28;20286;-73
2022/03/28 07:47:22;;;;;;;15.95;13.65;;;10.20;99.90;;;;;;5064429;28;20175;-73
2022/03/28 07:49:48;;;;;;;19.95;13.93;;;10.20;99.90;;;;;;5071647;28;20172;-75
2022/03/28 07:52:14;;;;;;;15.50;13.90;;;10.30;99.90;;;;;;5064109;28;20185;-74
2022/03/28 07:54:40;;;;;;;17.35;13.20;;;10.40;99.90;;;;;;5062520;28;20207;-74
2022/03/28 07:57:07;;;;;;;14.90;13.23;;;10.40;99.90;;;;;;5070823;28;20262;-74
2022/03/28 07:59:32;;;;;;;15.65;13.95;;;10.50;99.90;;;;;;5068518;28;20267;-74
2022/03/28 08:01:58;;;;;;;13.60;11.95;;;10.60;99.90;;;;;;5066761;28;20609;-74
2022/03/28 08:04:23;;;;;;;14.73;12.07;;;10.80;99.90;;;;;;5061063;28;20191;-74
2022/03/28 08:06:50;;;;;;;15.32;12.35;;;10.90;99.90;;;;;;5070373;28;20267;-74
2022/03/28 08:09:17;;;;;;;14.30;12.75;;;11.00;99.90;;;;;;5060214;28;20267;-74
2022/03/28 08:11:43;;;;;;;14.07;12.68;;;11.20;99.90;;;;;;5065080;28;20171;-71
2022/03/28 08:14:09;;;;;;;14.43;12.98;;;11.20;99.90;;;;;;5066872;28;20289;-73
2022/03/28 08:16:34;;;;;;;14.23;12.43;;;11.20;99.90;;;;;;5061263;28;20332;-74
2022/03/28 08:19:00;;;;;;;14.25;12.88;;;11.20;99.90;;;;;;5062668;28;20199;-72
2022/03/28 08:21:26;;;;;;;14.07;12.63;;;11.30;99.90;;;;;;5057825;28;20187;-72
2022/03/28 08:23:51;;;;;;;14.18;12.25;;;11.30;99.90;;;;;;5063566;28;20183;-72
2022/03/28 08:26:17;;;;;;;15.60;12.27;;;11.40;99.90;;;;;;5060431;28;20302;-72
2022/03/28 08:28:44;;;;;;;13.68;12.27;;;11.60;99.90;;;;;;5055455;28;20175;-73
2022/03/28 08:31:10;;;;;;;13.82;12.43;;;11.60;99.90;;;;;;5066543;28;20183;-74
2022/03/28 08:33:35;;;;;;;13.68;12.02;;;11.60;99.90;;;;;;5064056;28;20270;-73
2022/03/28 08:36:01;;;;;;;13.48;12.15;;;11.70;99.90;;;;;;5060448;28;20278;-73
2022/03/28 08:38:27;;;;;;;16.42;12.32;;;11.90;99.90;;;;;;5068018;28;20266;-75
2022/03/28 08:40:54;;;;;;;12.57;11.45;;;12.10;99.90;;;;;;5063674;28;20223;-76
2022/03/28 08:43:22;;;;;;;14.82;11.70;;;12.30;99.90;;;;;;5069871;28;20270;-75
2022/03/28 08:45:49;;;;;;;13.80;12.40;;;12.40;99.90;;;;;;5062432;28;20199;-74
2022/03/28 08:48:16;;;;;;;13.90;12.10;;;12.70;99.90;;;;;;5058792;28;20252;-72
2022/03/28 08:50:50;;;;;;;13.95;12.38;;;12.90;99.90;;;;;;5061178;28;20203;-73
2022/03/28 08:53:17;;;;;;;15.75;14.13;;;13.10;99.90;;;;;;5058782;28;20767;-72
2022/03/28 08:55:44;;;;;;;17.00;13.73;;;13.20;99.90;;;;;;5064780;28;20206;-72
2022/03/28 08:58:11;;;;;;;13.40;12.10;;;13.30;99.90;;;;;;5069338;28;20750;-72
2022/03/28 09:00:37;;;;;;;13.57;11.82;;;13.50;99.90;;;;;;5064682;28;20707;-74
2022/03/28 09:03:03;;;;;;;12.20;10.93;;;14.40;99.90;;;;;;5069420;28;20713;-74
2022/03/28 09:05:36;;;;;;;12.75;11.40;;;16.40;99.90;;;;;;5060498;28;20211;-74
2022/03/28 09:08:04;;;;;;;12.57;11.00;;;19.20;99.90;;;;;;5065937;28;20209;-76
2022/03/28 09:10:34;;;;;;;11.90;10.80;;;21.80;92.60;;;;;;5063625;28;20183;-76
2022/03/28 09:13:07;;;;;;;14.07;10.98;;;23.70;77.10;;;;;;5063824;28;20282;-74
2022/03/28 09:15:45;;;;;;;11.38;10.18;;;25.40;68.80;;;;;;5077430;28;20229;-77
2022/03/28 09:18:31;;;;;;;12.38;10.77;;;26.70;60.40;;;;;;5064654;28;20654;-75
2022/03/28 09:21:10;;;;;;;12.63;10.88;;;27.60;55.70;;;;;;5063808;28;20191;-75
2022/03/28 09:23:38;;;;;;;12.75;10.85;;;28.60;53.30;;;;;;5065159;28;20202;-75
2022/03/28 09:26:20;;;;;;;11.27;10.15;;;29.40;50.70;;;;;;5062004;28;20218;-75
2022/03/28 09:29:06;;;;;;;12.85;10.55;;;30.10;49.00;;;;;;5056949;28;20171;-76
2022/03/28 09:31:35;;;;;;;10.80;9.90;;;30.90;46.50;;;;;;5063016;28;20183;-76
2022/03/28 09:34:07;;;;;;;11.40;10.30;;;31.50;44.90;;;;;;5062675;28;20211;-76
2022/03/28 09:36:49;;;;;;;10.65;9.55;;;31.90;44.80;;;;;;5054658;28;20717;-75
2022/03/28 09:39:19;;;;;;;12.85;11.55;;;32.20;43.80;;;;;;5058753;28;20666;-75
2022/03/28 09:42:06;;;;;;;12.90;10.90;;;32.40;42.80;;;;;;5061472;28;20171;-73
2022/03/28 09:44:44;;;;;;;11.60;9.95;;;32.80;42.20;;;;;;5062126;28;20243;-73
2022/03/28 09:47:11;;;;;;;11.07;10.13;;;33.50;41.40;;;;;;5060314;28;20612;-72
2022/03/28 09:49:38;;;;;;;11.82;10.13;;;34.10;40.50;;;;;;5061753;28;20194;-73
2022/03/28 09:52:32;;;;;;;12.63;11.32;;;34.30;40.00;;;;;;5061658;28;20187;-73
2022/03/28 09:55:00;;;;;;;12.40;11.13;;;34.00;40.00;;;;;;5063185;28;20702;-73
2022/03/28 09:57:31;;;;;;;9.27;8.50;;;34.00;39.30;;;;;;5058203;28;20270;-73
2022/03/28 10:00:14;;;;;;;11.30;10.30;;;34.70;39.60;;;;;;5056672;28;20270;-74
2022/03/28 10:02:41;;;;;;;11.05;9.93;;;34.90;39.30;;;;;;5069781;28;20172;-74
2022/03/28 10:05:08;;;;;;;12.70;11.48;;;35.30;38.70;;;;;;5062003;28;20272;-74
2022/03/28 10:07:34;;;;;;;11.50;10.40;;;35.80;37.70;;;;;;5054970;28;20195;-74
2022/03/28 10:10:00;;;;;;;11.02;9.98;;;35.10;38.20;;;;;;5068920;28;20191;-71
2022/03/28 10:12:27;;;;;;;12.00;10.95;;;35.80;37.80;;;;;;5068665;28;20559;-73
2022/03/28 10:14:57;;;;;;;10.45;9.55;;;35.70;36.90;;;;;;5064334;28;20221;-72
2022/03/28 10:17:24;;;;;;;12.18;11.07;;;35.70;38.20;;;;;;5059711;28;20245;-72
2022/03/28 10:19:50;;;;;;;10.13;9.13;;;36.10;36.50;;;;;;5065651;28;20167;-71
2022/03/28 10:22:24;;;;;;;10.52;9.63;;;36.20;37.80;;;;;;5065580;28;20198;-71
2022/03/28 10:24:52;;;;;;;11.63;10.45;;;36.60;36.90;;;;;;5056012;28;20476;-72
2022/03/28 10:27:18;;;;;;;11.65;10.48;;;36.60;36.00;;;;;;5059778;28;20194;-72
2022/03/28 10:29:44;;;;;;;10.93;10.00;;;36.70;35.90;;;;;;5068736;28;20190;-72
2022/03/28 10:32:20;;;;;;;11.25;10.05;;;36.60;36.00;;;;;;5064267;28;20198;-72
2022/03/28 10:34:59;;;;;;;10.70;9.77;;;36.50;35.90;;;;;;5059992;28;20210;-70
2022/03/28 10:37:43;;;;;;;12.07;10.70;;;37.40;35.40;;;;;;5061078;28;20260;-71
2022/03/28 10:40:12;;;;;;;12.45;11.30;;;37.60;35.40;;;;;;5065908;28;20179;-70
2022/03/28 10:42:47;;;;;;;11.45;10.32;;;38.10;33.70;;;;;;5064654;28;20547;-71
2022/03/28 10:45:18;;;;;;;11.15;10.05;;;37.70;33.00;;;;;;5063184;28;20204;-71
2022/03/28 10:47:56;;;;;;;11.15;10.07;;;38.00;33.00;;;;;;5062692;28;20733;-71
2022/03/28 10:50:25;;;;;;;11.00;9.55;;;37.90;31.10;;;;;;5054912;28;20262;-71
2022/03/28 10:53:29;;;;;;;10.25;9.18;;;36.50;31.80;;;;;;5065673;28;20268;-72
2022/03/28 10:56:00;;;;;;;9.65;8.73;;;36.00;32.50;;;;;;5028499;28;20246;-73
2022/03/28 10:58:28;;;;;;;9.02;8.02;;;36.00;31.70;;;;;;5029486;28;20184;-73
2022/03/28 11:01:11;;;;;;;8.40;7.55;;;36.00;32.30;;;;;;5045733;28;20260;-73
2022/03/28 11:04:00;;;;;;;8.75;7.60;;;36.50;31.40;;;;;;5070484;28;20218;-74
2022/03/28 11:07:05;;;;;;;7.70;7.00;;;36.20;31.90;;;;;;5063036;28;20692;-71
2022/03/28 11:09:44;;;;;;;7.32;6.55;;;35.80;31.80;;;;;;5061982;28;20186;-77
2022/03/28 11:12:14;;;;;;;8.00;7.20;;;35.40;33.50;;;;;;5063162;28;20536;-74
2022/03/28 11:14:41;;;;;;;6.97;6.25;;;36.20;32.80;;;;;;5067573;28;20557;-73
2022/03/28 11:17:35;;;;;;;6.20;5.70;;;36.90;31.00;;;;;;5064040;28;20261;-71
2022/03/28 11:20:18;;;;;;;7.65;6.90;;;37.50;30.20;;;;;;5061580;28;20190;-72
2022/03/28 11:22:45;;;;;;;10.15;7.90;;;36.90;31.20;;;;;;5067945;28;20190;-73
2022/03/28 11:25:29;;;;;;;7.22;6.63;;;36.10;31.20;;;;;;5063346;28;20290;-73
2022/03/28 11:28:22;;;;;;;8.38;5.75;;;36.50;30.60;;;;;;5059089;28;20638;-73
2022/03/28 11:31:09;;;;;;;13.25;11.90;;;37.00;29.70;;;;;;5062561;28;20179;-74
2022/03/28 11:33:37;;;;;;;9.05;8.15;;;37.50;30.00;;;;;;5063798;28;20175;-74
2022/03/28 11:36:12;;;;;;;10.90;9.80;;;37.10;29.70;;;;;;5060501;28;20261;-72
2022/03/28 11:38:53;;;;;;;9.88;6.85;;;36.60;30.50;;;;;;5071193;28;20642;-72
2022/03/28 11:41:21;;;;;;;7.45;6.72;;;36.50;30.20;;;;;;5058799;28;20183;-73
2022/03/28 11:43:52;;;;;;;8.65;7.10;;;36.50;30.00;;;;;;5062796;28;20183;-72
2022/03/28 11:46:29;;;;;;;8.10;7.07;;;36.10;31.00;;;;;;5055561;28;20219;-73
2022/03/28 11:48:59;;;;;;;8.70;7.30;;;36.00;30.10;;;;;;5060844;28;20182;-73
2022/03/28 11:51:45;;;;;;;8.50;6.78;;;36.20;29.80;;;;;;5068825;28;20179;-73
2022/03/28 11:54:16;;;;;;;8.18;7.22;;;36.20;29.80;;;;;;5059960;28;20566;-73
2022/03/28 11:59:28;;;;;;;7.90;7.20;;;36.70;29.40;;;;;;5062882;28;20271;-72
2022/03/28 12:01:58;;;;;;;9.30;7.50;;;37.00;29.20;;;;;;5065659;28;20183;-73
2022/03/28 12:04:24;;;;;;;8.88;7.88;;;36.40;30.00;;;;;;5057864;28;20184;-72
2022/03/28 12:06:53;;;;;;;10.63;7.57;;;35.50;30.40;;;;;;5060212;28;20662;-74
2022/03/28 12:09:22;;;;;;;8.65;6.47;;;35.70;30.90;;;;;;5054042;28;20665;-70
2022/03/28 12:11:56;;;;;;;9.48;8.05;;;36.40;29.30;;;;;;5067324;28;20553;-71
2022/03/28 12:14:22;;;;;;;8.48;7.78;;;36.50;29.30;;;;;;5059127;28;20195;-71
2022/03/28 12:16:51;;;;;;;9.18;6.70;;;36.50;29.30;;;;;;5057992;28;20178;-71
2022/03/28 12:19:22;;;;;;;9.65;7.38;;;36.80;29.50;;;;;;5063092;28;20171;-72
2022/03/28 12:21:49;;;;;;;7.57;6.78;;;36.80;30.90;;;;;;5061378;28;20202;-73
2022/03/28 12:24:15;;;;;;;8.55;7.55;;;36.30;29.30;;;;;;5070403;28;20178;-74
2022/03/28 12:26:46;;;;;;;7.97;7.18;;;35.90;29.40;;;;;;5064967;28;20215;-74
2022/03/28 12:29:11;;;;;;;7.43;6.60;;;35.60;30.10;;;;;;5061627;28;20190;-72
2022/03/28 12:31:41;;;;;;;7.93;6.15;;;36.00;29.90;;;;;;5062767;28;20406;-70
2022/03/28 12:34:07;;;;;;;12.23;6.60;;;35.90;29.60;;;;;;5058996;28;20202;-72
2022/03/28 12:36:35;;;;;;;8.10;7.13;;;35.20;29.70;;;;;;5063620;28;20199;-73
2022/03/28 12:39:06;;;;;;;8.15;6.38;;;34.50;30.30;;;;;;5067901;28;20175;-71
2022/03/28 12:41:46;;;;;;;14.02;7.78;;;34.20;30.10;;;;;;5058417;28;20171;-72
2022/03/28 12:44:16;;;;;;;8.15;6.93;;;33.90;30.80;;;;;;5063880;28;20681;-73
2022/03/28 12:46:44;;;;;;;8.75;7.95;;;33.90;31.00;;;;;;5065494;28;20213;-70
2022/03/28 12:49:13;;;;;;;10.40;7.80;;;34.30;30.20;;;;;;5058144;28;20190;-69
2022/03/28 12:51:40;;;;;;;8.93;7.65;;;34.10;30.30;;;;;;5059567;28;20183;-72